Terminal Aerodrome Forecast
Issued by NWS Tampa Bay Area, FL

Home | Current Version | Previous Version | Text Only | Print | Product List | Glossary On
Versions: 1 2 3 4 5 6 7 8 9 10 11 12 13 14 15 16 17
000
FTUS42 KTBW 081724
TAFSRQ
TAF
KSRQ 081724Z 0818/0918 22010G15KT P6SM SCT040 BKN250
     FM082000 25012G24KT P6SM SCT040 BKN250
     FM090400 27020G30KT P6SM BKN040
     FM091000 29015G24KT P6SM BKN035=

USA.gov is the U.S. government's official web portal to all federal, state and local government web resources and services.